sensor_id;sensor_type;location;lat;lon;timestamp;P1;durP1;ratioP1;P2;durP2;ratioP2
6928;SDS011;3504;52.616;13.238;2023-07-30T00:01:25;5.63;;;5.13;;
6928;SDS011;3504;52.616;13.238;2023-07-30T00:06:25;5.22;;;4.57;;
6928;SDS011;3504;52.616;13.238;2023-07-30T00:11:26;8.18;;;5.55;;
6928;SDS011;3504;52.616;13.238;2023-07-30T00:16:26;6.70;;;4.70;;
6928;SDS011;3504;52.616;13.238;2023-07-30T00:21:27;6.60;;;3.97;;
6928;SDS011;3504;52.616;13.238;2023-07-30T00:26:27;6.15;;;5.20;;
6928;SDS011;3504;52.616;13.238;2023-07-30T00:31:31;6.47;;;5.07;;
6928;SDS011;3504;52.616;13.238;2023-07-30T00:36:32;5.70;;;5.20;;
6928;SDS011;3504;52.616;13.238;2023-07-30T00:41:33;7.70;;;4.50;;
6928;SDS011;3504;52.616;13.238;2023-07-30T00:46:33;5.07;;;4.57;;
6928;SDS011;3504;52.616;13.238;2023-07-30T00:51:34;5.50;;;5.00;;
6928;SDS011;3504;52.616;13.238;2023-07-30T00:56:35;6.40;;;5.15;;
6928;SDS011;3504;52.616;13.238;2023-07-30T01:01:36;4.93;;;4.43;;
6928;SDS011;3504;52.616;13.238;2023-07-30T01:06:41;8.40;;;5.07;;
6928;SDS011;3504;52.616;13.238;2023-07-30T01:11:42;5.43;;;4.85;;
6928;SDS011;3504;52.616;13.238;2023-07-30T01:16:44;5.50;;;5.00;;
6928;SDS011;3504;52.616;13.238;2023-07-30T01:21:44;7.47;;;5.00;;
6928;SDS011;3504;52.616;13.238;2023-07-30T01:26:46;5.73;;;5.10;;
6928;SDS011;3504;52.616;13.238;2023-07-30T01:32:01;6.40;;;5.10;;
6928;SDS011;3504;52.616;13.238;2023-07-30T01:37:05;7.07;;;5.00;;
6928;SDS011;3504;52.616;13.238;2023-07-30T01:42:13;5.17;;;4.63;;
6928;SDS011;3504;52.616;13.238;2023-07-30T01:47:14;6.10;;;5.50;;
6928;SDS011;3504;52.616;13.238;2023-07-30T01:52:15;8.07;;;5.43;;
6928;SDS011;3504;52.616;13.238;2023-07-30T01:57:15;6.63;;;5.80;;
6928;SDS011;3504;52.616;13.238;2023-07-30T02:02:16;6.03;;;5.30;;
6928;SDS011;3504;52.616;13.238;2023-07-30T02:07:16;7.60;;;5.43;;
6928;SDS011;3504;52.616;13.238;2023-07-30T02:12:17;6.73;;;6.03;;
6928;SDS011;3504;52.616;13.238;2023-07-30T02:17:18;6.50;;;4.93;;
6928;SDS011;3504;52.616;13.238;2023-07-30T02:22:18;6.97;;;4.93;;
6928;SDS011;3504;52.616;13.238;2023-07-30T02:27:19;6.67;;;4.80;;
6928;SDS011;3504;52.616;13.238;2023-07-30T02:32:19;5.73;;;5.07;;
6928;SDS011;3504;52.616;13.238;2023-07-30T02:37:20;5.70;;;5.07;;
6928;SDS011;3504;52.616;13.238;2023-07-30T02:42:20;6.38;;;4.70;;
6928;SDS011;3504;52.616;13.238;2023-07-30T02:47:21;5.65;;;4.95;;
6928;SDS011;3504;52.616;13.238;2023-07-30T02:52:21;6.83;;;5.30;;
6928;SDS011;3504;52.616;13.238;2023-07-30T02:57:22;7.50;;;5.13;;
6928;SDS011;3504;52.616;13.238;2023-07-30T03:02:22;7.33;;;6.00;;
6928;SDS011;3504;52.616;13.238;2023-07-30T03:07:23;7.13;;;5.07;;
6928;SDS011;3504;52.616;13.238;2023-07-30T03:12:24;6.37;;;5.20;;
6928;SDS011;3504;52.616;13.238;2023-07-30T03:17:25;8.27;;;5.73;;
6928;SDS011;3504;52.616;13.238;2023-07-30T03:22:25;9.97;;;5.67;;
6928;SDS011;3504;52.616;13.238;2023-07-30T03:27:26;5.57;;;5.07;;
6928;SDS011;3504;52.616;13.238;2023-07-30T03:32:27;5.80;;;5.20;;
6928;SDS011;3504;52.616;13.238;2023-07-30T03:37:28;5.60;;;5.10;;
6928;SDS011;3504;52.616;13.238;2023-07-30T03:42:29;5.93;;;5.17;;
6928;SDS011;3504;52.616;13.238;2023-07-30T03:47:30;8.93;;;5.17;;
6928;SDS011;3504;52.616;13.238;2023-07-30T03:52:30;5.97;;;5.33;;
6928;SDS011;3504;52.616;13.238;2023-07-30T03:57:31;5.60;;;5.10;;
6928;SDS011;3504;52.616;13.238;2023-07-30T04:02:32;5.70;;;4.87;;
6928;SDS011;3504;52.616;13.238;2023-07-30T04:07:32;7.27;;;5.30;;
6928;SDS011;3504;52.616;13.238;2023-07-30T04:12:33;7.07;;;4.93;;
6928;SDS011;3504;52.616;13.238;2023-07-30T04:17:37;7.57;;;5.70;;
6928;SDS011;3504;52.616;13.238;2023-07-30T04:22:38;6.37;;;5.77;;
6928;SDS011;3504;52.616;13.238;2023-07-30T04:27:41;6.67;;;5.07;;
6928;SDS011;3504;52.616;13.238;2023-07-30T04:32:42;6.33;;;5.73;;
6928;SDS011;3504;52.616;13.238;2023-07-30T04:37:42;6.33;;;5.27;;
6928;SDS011;3504;52.616;13.238;2023-07-30T04:42:44;7.17;;;5.87;;
6928;SDS011;3504;52.616;13.238;2023-07-30T04:47:44;7.80;;;7.10;;
6928;SDS011;3504;52.616;13.238;2023-07-30T04:52:45;8.60;;;7.63;;
6928;SDS011;3504;52.616;13.238;2023-07-30T04:57:45;8.20;;;7.40;;
6928;SDS011;3504;52.616;13.238;2023-07-30T05:02:46;9.13;;;7.57;;
6928;SDS011;3504;52.616;13.238;2023-07-30T05:07:47;8.63;;;7.73;;
6928;SDS011;3504;52.616;13.238;2023-07-30T05:12:47;8.73;;;7.93;;
6928;SDS011;3504;52.616;13.238;2023-07-30T05:17:48;9.20;;;7.57;;
6928;SDS011;3504;52.616;13.238;2023-07-30T05:22:48;7.37;;;6.67;;
6928;SDS011;3504;52.616;13.238;2023-07-30T05:27:49;7.93;;;6.90;;
6928;SDS011;3504;52.616;13.238;2023-07-30T05:32:49;7.30;;;6.70;;
6928;SDS011;3504;52.616;13.238;2023-07-30T05:37:50;6.90;;;6.10;;
6928;SDS011;3504;52.616;13.238;2023-07-30T05:42:50;7.07;;;6.47;;
6928;SDS011;3504;52.616;13.238;2023-07-30T05:47:51;7.07;;;6.45;;
6928;SDS011;3504;52.616;13.238;2023-07-30T05:52:51;7.18;;;6.57;;
6928;SDS011;3504;52.616;13.238;2023-07-30T05:57:52;6.45;;;5.65;;
6928;SDS011;3504;52.616;13.238;2023-07-30T06:02:53;6.13;;;5.63;;
6928;SDS011;3504;52.616;13.238;2023-07-30T06:07:53;6.35;;;5.70;;
6928;SDS011;3504;52.616;13.238;2023-07-30T06:12:54;6.90;;;6.20;;
6928;SDS011;3504;52.616;13.238;2023-07-30T06:17:54;6.25;;;5.53;;
6928;SDS011;3504;52.616;13.238;2023-07-30T06:22:55;7.65;;;5.18;;
6928;SDS011;3504;52.616;13.238;2023-07-30T06:27:56;7.32;;;5.32;;
6928;SDS011;3504;52.616;13.238;2023-07-30T06:32:58;6.18;;;5.10;;
6928;SDS011;3504;52.616;13.238;2023-07-30T06:37:59;6.55;;;5.38;;
6928;SDS011;3504;52.616;13.238;2023-07-30T06:43:00;5.72;;;4.80;;
6928;SDS011;3504;52.616;13.238;2023-07-30T06:48:00;5.10;;;4.50;;
6928;SDS011;3504;52.616;13.238;2023-07-30T06:53:01;5.70;;;4.30;;
6928;SDS011;3504;52.616;13.238;2023-07-30T06:58:01;4.88;;;4.47;;
6928;SDS011;3504;52.616;13.238;2023-07-30T07:03:02;5.05;;;4.18;;
6928;SDS011;3504;52.616;13.238;2023-07-30T07:08:02;4.43;;;4.03;;
6928;SDS011;3504;52.616;13.238;2023-07-30T07:13:03;6.18;;;4.43;;
6928;SDS011;3504;52.616;13.238;2023-07-30T07:18:03;6.70;;;4.50;;
6928;SDS011;3504;52.616;13.238;2023-07-30T07:23:04;4.30;;;3.90;;
6928;SDS011;3504;52.616;13.238;2023-07-30T07:28:04;4.40;;;4.00;;
6928;SDS011;3504;52.616;13.238;2023-07-30T07:33:05;4.68;;;4.28;;
6928;SDS011;3504;52.616;13.238;2023-07-30T07:38:06;4.07;;;3.63;;
6928;SDS011;3504;52.616;13.238;2023-07-30T07:43:07;4.32;;;3.92;;
6928;SDS011;3504;52.616;13.238;2023-07-30T07:48:08;3.80;;;3.40;;
6928;SDS011;3504;52.616;13.238;2023-07-30T07:53:08;5.38;;;4.30;;
6928;SDS011;3504;52.616;13.238;2023-07-30T07:58:09;4.97;;;3.90;;
6928;SDS011;3504;52.616;13.238;2023-07-30T08:03:09;6.30;;;4.38;;
6928;SDS011;3504;52.616;13.238;2023-07-30T08:08:10;4.85;;;3.90;;
6928;SDS011;3504;52.616;13.238;2023-07-30T08:13:10;5.47;;;3.25;;
6928;SDS011;3504;52.616;13.238;2023-07-30T08:18:11;3.47;;;3.05;;
6928;SDS011;3504;52.616;13.238;2023-07-30T08:23:12;6.80;;;3.50;;
6928;SDS011;3504;52.616;13.238;2023-07-30T08:28:12;7.72;;;3.25;;
6928;SDS011;3504;52.616;13.238;2023-07-30T08:33:13;3.00;;;2.67;;
6928;SDS011;3504;52.616;13.238;2023-07-30T08:38:13;3.53;;;2.50;;
6928;SDS011;3504;52.616;13.238;2023-07-30T08:43:13;4.28;;;3.03;;
6928;SDS011;3504;52.616;13.238;2023-07-30T08:48:14;5.28;;;2.95;;
6928;SDS011;3504;52.616;13.238;2023-07-30T08:53:15;5.22;;;2.97;;
6928;SDS011;3504;52.616;13.238;2023-07-30T08:58:15;5.60;;;2.78;;
6928;SDS011;3504;52.616;13.238;2023-07-30T09:03:17;3.28;;;2.58;;
6928;SDS011;3504;52.616;13.238;2023-07-30T09:08:18;4.63;;;2.80;;
6928;SDS011;3504;52.616;13.238;2023-07-30T09:13:22;3.53;;;2.53;;
6928;SDS011;3504;52.616;13.238;2023-07-30T09:18:23;5.70;;;2.28;;
6928;SDS011;3504;52.616;13.238;2023-07-30T09:23:24;5.90;;;3.03;;
6928;SDS011;3504;52.616;13.238;2023-07-30T09:28:30;3.85;;;2.47;;
6928;SDS011;3504;52.616;13.238;2023-07-30T09:33:31;3.58;;;2.58;;
6928;SDS011;3504;52.616;13.238;2023-07-30T09:38:37;4.07;;;2.65;;
6928;SDS011;3504;52.616;13.238;2023-07-30T09:43:39;3.75;;;2.45;;
6928;SDS011;3504;52.616;13.238;2023-07-30T09:48:40;5.93;;;2.88;;
6928;SDS011;3504;52.616;13.238;2023-07-30T09:53:40;3.65;;;2.60;;
6928;SDS011;3504;52.616;13.238;2023-07-30T09:58:41;4.40;;;2.35;;
6928;SDS011;3504;52.616;13.238;2023-07-30T10:03:43;3.95;;;2.78;;
6928;SDS011;3504;52.616;13.238;2023-07-30T10:08:43;4.47;;;2.67;;
6928;SDS011;3504;52.616;13.238;2023-07-30T10:13:46;4.05;;;3.03;;
6928;SDS011;3504;52.616;13.238;2023-07-30T10:18:46;6.88;;;2.42;;
6928;SDS011;3504;52.616;13.238;2023-07-30T10:29:18;3.65;;;2.70;;
6928;SDS011;3504;52.616;13.238;2023-07-30T10:34:20;3.42;;;2.80;;
6928;SDS011;3504;52.616;13.238;2023-07-30T10:39:26;3.83;;;2.97;;
6928;SDS011;3504;52.616;13.238;2023-07-30T10:44:29;4.43;;;2.60;;
6928;SDS011;3504;52.616;13.238;2023-07-30T10:49:38;3.42;;;2.78;;
6928;SDS011;3504;52.616;13.238;2023-07-30T10:54:40;3.63;;;2.70;;
6928;SDS011;3504;52.616;13.238;2023-07-30T10:59:41;5.05;;;2.55;;
6928;SDS011;3504;52.616;13.238;2023-07-30T11:04:41;3.90;;;2.70;;
6928;SDS011;3504;52.616;13.238;2023-07-30T11:09:42;4.55;;;2.80;;
6928;SDS011;3504;52.616;13.238;2023-07-30T11:14:45;4.53;;;3.08;;
6928;SDS011;3504;52.616;13.238;2023-07-30T11:19:48;5.45;;;2.72;;
6928;SDS011;3504;52.616;13.238;2023-07-30T11:24:49;6.60;;;2.88;;
6928;SDS011;3504;52.616;13.238;2023-07-30T11:29:56;5.47;;;2.92;;
6928;SDS011;3504;52.616;13.238;2023-07-30T11:34:57;5.43;;;2.72;;
6928;SDS011;3504;52.616;13.238;2023-07-30T11:39:57;5.63;;;2.65;;
6928;SDS011;3504;52.616;13.238;2023-07-30T11:45:00;4.13;;;2.78;;
6928;SDS011;3504;52.616;13.238;2023-07-30T11:50:21;3.10;;;2.22;;
6928;SDS011;3504;52.616;13.238;2023-07-30T11:55:22;7.90;;;2.90;;
6928;SDS011;3504;52.616;13.238;2023-07-30T12:00:24;5.88;;;3.53;;
6928;SDS011;3504;52.616;13.238;2023-07-30T12:05:34;6.00;;;2.50;;
6928;SDS011;3504;52.616;13.238;2023-07-30T12:10:42;5.43;;;3.88;;
6928;SDS011;3504;52.616;13.238;2023-07-30T12:15:52;5.90;;;2.60;;
6928;SDS011;3504;52.616;13.238;2023-07-30T12:20:53;4.53;;;2.70;;
6928;SDS011;3504;52.616;13.238;2023-07-30T12:25:54;5.68;;;2.60;;
6928;SDS011;3504;52.616;13.238;2023-07-30T12:30:55;3.88;;;2.83;;
6928;SDS011;3504;52.616;13.238;2023-07-30T12:35:55;3.72;;;2.63;;
6928;SDS011;3504;52.616;13.238;2023-07-30T12:40:56;5.40;;;2.53;;
6928;SDS011;3504;52.616;13.238;2023-07-30T12:45:56;5.25;;;3.17;;
6928;SDS011;3504;52.616;13.238;2023-07-30T12:50:57;5.00;;;2.83;;
6928;SDS011;3504;52.616;13.238;2023-07-30T12:55:57;7.80;;;3.40;;
6928;SDS011;3504;52.616;13.238;2023-07-30T13:00:58;4.97;;;3.13;;
6928;SDS011;3504;52.616;13.238;2023-07-30T13:05:58;4.22;;;2.97;;
6928;SDS011;3504;52.616;13.238;2023-07-30T13:10:59;3.90;;;3.00;;
6928;SDS011;3504;52.616;13.238;2023-07-30T13:15:59;3.22;;;2.72;;
6928;SDS011;3504;52.616;13.238;2023-07-30T13:21:01;5.88;;;3.65;;
6928;SDS011;3504;52.616;13.238;2023-07-30T13:26:02;5.50;;;2.88;;
6928;SDS011;3504;52.616;13.238;2023-07-30T13:31:03;4.68;;;2.85;;
6928;SDS011;3504;52.616;13.238;2023-07-30T13:36:04;3.83;;;2.70;;
6928;SDS011;3504;52.616;13.238;2023-07-30T13:41:05;5.72;;;2.85;;
6928;SDS011;3504;52.616;13.238;2023-07-30T13:46:06;5.88;;;2.58;;
6928;SDS011;3504;52.616;13.238;2023-07-30T13:51:06;3.28;;;2.33;;
6928;SDS011;3504;52.616;13.238;2023-07-30T13:56:07;3.80;;;2.13;;
6928;SDS011;3504;52.616;13.238;2023-07-30T14:01:07;2.33;;;1.98;;
6928;SDS011;3504;52.616;13.238;2023-07-30T14:06:09;4.07;;;2.08;;
6928;SDS011;3504;52.616;13.238;2023-07-30T14:11:10;3.00;;;1.92;;
6928;SDS011;3504;52.616;13.238;2023-07-30T14:16:11;3.35;;;2.20;;
6928;SDS011;3504;52.616;13.238;2023-07-30T14:21:11;2.22;;;1.80;;
6928;SDS011;3504;52.616;13.238;2023-07-30T14:26:13;4.45;;;2.05;;
6928;SDS011;3504;52.616;13.238;2023-07-30T14:31:13;3.45;;;1.88;;
6928;SDS011;3504;52.616;13.238;2023-07-30T14:36:14;4.38;;;1.85;;
6928;SDS011;3504;52.616;13.238;2023-07-30T14:41:15;3.65;;;1.95;;
6928;SDS011;3504;52.616;13.238;2023-07-30T14:46:15;4.38;;;2.35;;
6928;SDS011;3504;52.616;13.238;2023-07-30T14:51:16;6.38;;;2.40;;
6928;SDS011;3504;52.616;13.238;2023-07-30T14:56:17;3.00;;;2.20;;
6928;SDS011;3504;52.616;13.238;2023-07-30T15:01:17;8.32;;;2.25;;
6928;SDS011;3504;52.616;13.238;2023-07-30T15:06:18;3.10;;;2.22;;
6928;SDS011;3504;52.616;13.238;2023-07-30T15:11:19;3.35;;;1.98;;
6928;SDS011;3504;52.616;13.238;2023-07-30T15:16:19;4.20;;;2.00;;
6928;SDS011;3504;52.616;13.238;2023-07-30T15:21:20;4.45;;;1.80;;
6928;SDS011;3504;52.616;13.238;2023-07-30T15:26:20;4.15;;;2.03;;
6928;SDS011;3504;52.616;13.238;2023-07-30T15:31:21;4.40;;;2.15;;
6928;SDS011;3504;52.616;13.238;2023-07-30T15:36:22;3.60;;;1.95;;
6928;SDS011;3504;52.616;13.238;2023-07-30T15:41:23;1.85;;;1.50;;
6928;SDS011;3504;52.616;13.238;2023-07-30T15:46:23;2.28;;;2.00;;
6928;SDS011;3504;52.616;13.238;2023-07-30T15:51:24;3.15;;;1.88;;
6928;SDS011;3504;52.616;13.238;2023-07-30T15:56:26;3.00;;;1.60;;
6928;SDS011;3504;52.616;13.238;2023-07-30T16:01:26;3.92;;;1.95;;
6928;SDS011;3504;52.616;13.238;2023-07-30T16:06:27;1.67;;;1.58;;
6928;SDS011;3504;52.616;13.238;2023-07-30T16:11:27;3.15;;;1.83;;
6928;SDS011;3504;52.616;13.238;2023-07-30T16:16:28;2.83;;;1.85;;
6928;SDS011;3504;52.616;13.238;2023-07-30T16:21:28;3.00;;;1.98;;
6928;SDS011;3504;52.616;13.238;2023-07-30T16:26:29;3.78;;;1.83;;
6928;SDS011;3504;52.616;13.238;2023-07-30T16:31:29;3.90;;;2.50;;
6928;SDS011;3504;52.616;13.238;2023-07-30T16:36:30;4.05;;;2.22;;
6928;SDS011;3504;52.616;13.238;2023-07-30T16:41:31;2.72;;;2.05;;
6928;SDS011;3504;52.616;13.238;2023-07-30T16:46:31;2.95;;;1.92;;
6928;SDS011;3504;52.616;13.238;2023-07-30T16:51:32;3.00;;;2.40;;
6928;SDS011;3504;52.616;13.238;2023-07-30T16:56:32;4.68;;;2.70;;
6928;SDS011;3504;52.616;13.238;2023-07-30T17:01:33;5.35;;;2.42;;
6928;SDS011;3504;52.616;13.238;2023-07-30T17:06:34;6.10;;;2.80;;
6928;SDS011;3504;52.616;13.238;2023-07-30T17:11:38;3.70;;;2.22;;
6928;SDS011;3504;52.616;13.238;2023-07-30T17:16:40;4.55;;;2.50;;
6928;SDS011;3504;52.616;13.238;2023-07-30T17:21:42;5.78;;;3.35;;
6928;SDS011;3504;52.616;13.238;2023-07-30T17:26:42;6.63;;;2.72;;
6928;SDS011;3504;52.616;13.238;2023-07-30T17:31:42;4.25;;;3.08;;
6928;SDS011;3504;52.616;13.238;2023-07-30T17:36:43;7.07;;;3.20;;
6928;SDS011;3504;52.616;13.238;2023-07-30T17:41:43;6.30;;;3.05;;
6928;SDS011;3504;52.616;13.238;2023-07-30T17:46:44;5.75;;;3.20;;
6928;SDS011;3504;52.616;13.238;2023-07-30T17:51:45;4.50;;;2.88;;
6928;SDS011;3504;52.616;13.238;2023-07-30T17:56:45;4.30;;;2.95;;
6928;SDS011;3504;52.616;13.238;2023-07-30T18:01:46;8.70;;;3.25;;
6928;SDS011;3504;52.616;13.238;2023-07-30T18:06:46;4.85;;;3.20;;
6928;SDS011;3504;52.616;13.238;2023-07-30T18:11:47;7.47;;;2.80;;
6928;SDS011;3504;52.616;13.238;2023-07-30T18:16:47;9.32;;;3.53;;
6928;SDS011;3504;52.616;13.238;2023-07-30T18:21:50;4.80;;;2.50;;
6928;SDS011;3504;52.616;13.238;2023-07-30T18:26:51;3.47;;;2.65;;
6928;SDS011;3504;52.616;13.238;2023-07-30T18:31:52;7.30;;;3.42;;
6928;SDS011;3504;52.616;13.238;2023-07-30T18:36:52;4.82;;;3.00;;
6928;SDS011;3504;52.616;13.238;2023-07-30T18:41:53;6.95;;;2.70;;
6928;SDS011;3504;52.616;13.238;2023-07-30T18:46:54;4.65;;;3.10;;
6928;SDS011;3504;52.616;13.238;2023-07-30T18:52:00;4.97;;;2.83;;
6928;SDS011;3504;52.616;13.238;2023-07-30T18:57:01;3.85;;;2.78;;
6928;SDS011;3504;52.616;13.238;2023-07-30T19:02:02;9.85;;;4.65;;
6928;SDS011;3504;52.616;13.238;2023-07-30T19:07:02;13.13;;;5.13;;
6928;SDS011;3504;52.616;13.238;2023-07-30T19:12:03;9.43;;;4.95;;
6928;SDS011;3504;52.616;13.238;2023-07-30T19:17:04;8.40;;;4.68;;
6928;SDS011;3504;52.616;13.238;2023-07-30T19:22:05;9.68;;;4.43;;
6928;SDS011;3504;52.616;13.238;2023-07-30T19:27:05;7.28;;;4.70;;
6928;SDS011;3504;52.616;13.238;2023-07-30T19:32:06;5.45;;;4.65;;
6928;SDS011;3504;52.616;13.238;2023-07-30T19:37:06;6.72;;;4.20;;
6928;SDS011;3504;52.616;13.238;2023-07-30T19:42:07;6.53;;;4.20;;
6928;SDS011;3504;52.616;13.238;2023-07-30T19:47:07;7.13;;;4.13;;
6928;SDS011;3504;52.616;13.238;2023-07-30T19:52:08;7.40;;;4.15;;
6928;SDS011;3504;52.616;13.238;2023-07-30T19:57:08;6.82;;;4.32;;
6928;SDS011;3504;52.616;13.238;2023-07-30T20:02:09;7.10;;;4.40;;
6928;SDS011;3504;52.616;13.238;2023-07-30T20:07:10;7.35;;;4.18;;
6928;SDS011;3504;52.616;13.238;2023-07-30T20:12:10;5.43;;;4.93;;
6928;SDS011;3504;52.616;13.238;2023-07-30T20:17:11;6.80;;;5.35;;
6928;SDS011;3504;52.616;13.238;2023-07-30T20:22:11;7.82;;;5.47;;
6928;SDS011;3504;52.616;13.238;2023-07-30T20:27:13;7.30;;;4.95;;
6928;SDS011;3504;52.616;13.238;2023-07-30T20:32:14;6.25;;;5.40;;
6928;SDS011;3504;52.616;13.238;2023-07-30T20:37:14;5.13;;;4.63;;
6928;SDS011;3504;52.616;13.238;2023-07-30T20:42:15;7.50;;;5.10;;
6928;SDS011;3504;52.616;13.238;2023-07-30T20:47:15;6.88;;;5.07;;
6928;SDS011;3504;52.616;13.238;2023-07-30T20:52:16;7.72;;;5.63;;
6928;SDS011;3504;52.616;13.238;2023-07-30T20:57:17;7.15;;;5.10;;
6928;SDS011;3504;52.616;13.238;2023-07-30T21:02:17;7.32;;;4.90;;
6928;SDS011;3504;52.616;13.238;2023-07-30T21:07:20;6.65;;;5.55;;
6928;SDS011;3504;52.616;13.238;2023-07-30T21:12:21;6.97;;;4.40;;
6928;SDS011;3504;52.616;13.238;2023-07-30T21:17:22;7.95;;;4.85;;
6928;SDS011;3504;52.616;13.238;2023-07-30T21:22:23;10.10;;;5.70;;
6928;SDS011;3504;52.616;13.238;2023-07-30T21:27:23;9.77;;;5.73;;
6928;SDS011;3504;52.616;13.238;2023-07-30T21:32:24;9.02;;;5.82;;
6928;SDS011;3504;52.616;13.238;2023-07-30T21:37:24;10.80;;;5.18;;
6928;SDS011;3504;52.616;13.238;2023-07-30T21:42:25;8.23;;;4.65;;
6928;SDS011;3504;52.616;13.238;2023-07-30T21:47:26;7.15;;;4.60;;
6928;SDS011;3504;52.616;13.238;2023-07-30T21:52:27;8.32;;;4.70;;
6928;SDS011;3504;52.616;13.238;2023-07-30T21:57:32;6.93;;;4.32;;
6928;SDS011;3504;52.616;13.238;2023-07-30T22:02:33;6.33;;;3.23;;
6928;SDS011;3504;52.616;13.238;2023-07-30T22:07:33;8.23;;;3.90;;
6928;SDS011;3504;52.616;13.238;2023-07-30T22:12:34;8.07;;;3.43;;
6928;SDS011;3504;52.616;13.238;2023-07-30T22:17:35;5.13;;;3.20;;
6928;SDS011;3504;52.616;13.238;2023-07-30T22:22:35;5.10;;;2.90;;
6928;SDS011;3504;52.616;13.238;2023-07-30T22:27:36;3.90;;;2.50;;
6928;SDS011;3504;52.616;13.238;2023-07-30T22:32:36;4.37;;;2.53;;
6928;SDS011;3504;52.616;13.238;2023-07-30T22:37:37;6.40;;;2.63;;
6928;SDS011;3504;52.616;13.238;2023-07-30T22:42:37;4.73;;;2.60;;
6928;SDS011;3504;52.616;13.238;2023-07-30T22:47:38;5.63;;;2.53;;
6928;SDS011;3504;52.616;13.238;2023-07-30T22:52:39;4.20;;;2.33;;
6928;SDS011;3504;52.616;13.238;2023-07-30T22:57:39;4.00;;;2.43;;
6928;SDS011;3504;52.616;13.238;2023-07-30T23:02:40;3.73;;;2.57;;
6928;SDS011;3504;52.616;13.238;2023-07-30T23:07:40;4.50;;;2.77;;
6928;SDS011;3504;52.616;13.238;2023-07-30T23:12:41;4.57;;;2.70;;
6928;SDS011;3504;52.616;13.238;2023-07-30T23:17:42;4.67;;;2.40;;
6928;SDS011;3504;52.616;13.238;2023-07-30T23:22:43;4.70;;;2.53;;
6928;SDS011;3504;52.616;13.238;2023-07-30T23:27:43;3.10;;;2.40;;
6928;SDS011;3504;52.616;13.238;2023-07-30T23:32:47;2.90;;;2.30;;
6928;SDS011;3504;52.616;13.238;2023-07-30T23:37:47;4.27;;;2.30;;
6928;SDS011;3504;52.616;13.238;2023-07-30T23:42:48;4.43;;;2.80;;
6928;SDS011;3504;52.616;13.238;2023-07-30T23:47:49;6.17;;;2.80;;
6928;SDS011;3504;52.616;13.238;2023-07-30T23:52:49;5.53;;;2.70;;
6928;SDS011;3504;52.616;13.238;2023-07-30T23:57:49;5.93;;;2.40;;
